sensor_id;sensor_type;location;lat;lon;timestamp;pressure;altitude;pressure_sealevel;temperature;humidity
58771;BME280;44539;42.962;1.596;2022-09-13T07:29:07;96356.59;;;17.91;100.00
58771;BME280;44539;42.962;1.596;2022-09-13T07:31:35;96357.81;;;18.00;100.00
58771;BME280;44539;42.962;1.596;2022-09-13T07:34:06;96356.84;;;18.06;100.00
58771;BME280;44539;42.962;1.596;2022-09-13T07:36:34;96360.69;;;18.10;100.00
58771;BME280;44539;42.962;1.596;2022-09-13T07:39:00;96363.78;;;18.02;100.00
58771;BME280;44539;42.962;1.596;2022-09-13T07:41:28;96370.22;;;18.01;100.00
58771;BME280;44539;42.962;1.596;2022-09-13T07:43:54;96378.34;;;18.06;100.00
58771;BME280;44539;42.962;1.596;2022-09-13T07:46:21;96365.84;;;18.12;100.00
58771;BME280;44539;42.962;1.596;2022-09-13T07:48:48;96377.56;;;18.23;100.00
58771;BME280;44539;42.962;1.596;2022-09-13T07:51:19;96362.81;;;18.25;100.00
58771;BME280;44539;42.962;1.596;2022-09-13T07:53:45;96360.53;;;18.34;100.00
58771;BME280;44539;42.962;1.596;2022-09-13T07:56:26;96372.50;;;18.43;100.00
58771;BME280;44539;42.962;1.596;2022-09-13T07:58:52;96362.91;;;18.64;100.00
58771;BME280;44539;42.962;1.596;2022-09-13T08:06:18;96366.28;;;18.88;100.00
58771;BME280;44539;42.962;1.596;2022-09-13T08:08:44;96361.94;;;18.87;100.00
58771;BME280;44539;42.962;1.596;2022-09-13T08:11:14;96355.00;;;18.91;100.00
58771;BME280;44539;42.962;1.596;2022-09-13T08:13:40;96358.50;;;18.92;100.00
58771;BME280;44539;42.962;1.596;2022-09-13T08:16:06;96368.28;;;18.81;100.00
58771;BME280;44539;42.962;1.596;2022-09-13T08:18:32;96364.06;;;18.85;100.00
58771;BME280;44539;42.962;1.596;2022-09-13T08:20:59;96362.81;;;18.93;100.00
58771;BME280;44539;42.962;1.596;2022-09-13T08:23:25;96387.84;;;18.93;100.00
58771;BME280;44539;42.962;1.596;2022-09-13T08:25:50;96384.97;;;19.00;100.00
58771;BME280;44539;42.962;1.596;2022-09-13T08:28:18;96395.50;;;19.02;100.00
58771;BME280;44539;42.962;1.596;2022-09-13T08:30:46;96409.34;;;19.10;100.00
58771;BME280;44539;42.962;1.596;2022-09-13T08:33:12;96406.16;;;19.13;100.00
58771;BME280;44539;42.962;1.596;2022-09-13T08:35:38;96403.97;;;19.10;100.00
58771;BME280;44539;42.962;1.596;2022-09-13T08:38:05;96419.28;;;19.27;100.00
58771;BME280;44539;42.962;1.596;2022-09-13T08:40:39;96408.38;;;19.16;100.00
58771;BME280;44539;42.962;1.596;2022-09-13T08:43:10;96395.63;;;19.29;100.00
58771;BME280;44539;42.962;1.596;2022-09-13T08:45:36;96410.63;;;19.25;100.00
58771;BME280;44539;42.962;1.596;2022-09-13T08:48:04;96411.78;;;19.29;100.00
58771;BME280;44539;42.962;1.596;2022-09-13T08:50:34;96420.72;;;19.34;100.00
58771;BME280;44539;42.962;1.596;2022-09-13T08:53:21;96409.13;;;19.34;100.00
58771;BME280;44539;42.962;1.596;2022-09-13T08:56:05;96420.72;;;19.34;100.00
58771;BME280;44539;42.962;1.596;2022-09-13T09:01:16;96413.72;;;19.33;100.00
58771;BME280;44539;42.962;1.596;2022-09-13T09:06:24;96410.09;;;19.45;100.00
58771;BME280;44539;42.962;1.596;2022-09-13T09:09:03;96414.97;;;19.48;100.00
58771;BME280;44539;42.962;1.596;2022-09-13T09:14:31;96423.16;;;19.58;100.00
58771;BME280;44539;42.962;1.596;2022-09-13T09:17:03;96410.78;;;19.57;100.00
58771;BME280;44539;42.962;1.596;2022-09-13T09:19:37;96419.53;;;19.69;100.00
58771;BME280;44539;42.962;1.596;2022-09-13T09:22:10;96422.69;;;19.83;100.00
58771;BME280;44539;42.962;1.596;2022-09-13T09:24:39;96426.63;;;19.97;100.00
58771;BME280;44539;42.962;1.596;2022-09-13T09:27:17;96427.72;;;20.24;100.00
58771;BME280;44539;42.962;1.596;2022-09-13T09:29:43;96434.22;;;20.28;100.00
58771;BME280;44539;42.962;1.596;2022-09-13T09:37:27;96400.47;;;20.52;95.09
58771;BME280;44539;42.962;1.596;2022-09-13T09:39:57;96411.63;;;20.61;100.00
58771;BME280;44539;42.962;1.596;2022-09-13T09:42:27;96408.13;;;20.60;100.00
58771;BME280;44539;42.962;1.596;2022-09-13T09:44:58;96397.09;;;20.67;100.00
58771;BME280;44539;42.962;1.596;2022-09-13T09:47:27;96392.00;;;20.71;99.72
58771;BME280;44539;42.962;1.596;2022-09-13T09:50:29;96385.22;;;21.06;82.73
58771;BME280;44539;42.962;1.596;2022-09-13T09:52:56;96390.41;;;21.60;72.78
58771;BME280;44539;42.962;1.596;2022-09-13T09:55:34;96382.03;;;21.67;79.44
58771;BME280;44539;42.962;1.596;2022-09-13T09:58:05;96402.88;;;21.71;79.78
58771;BME280;44539;42.962;1.596;2022-09-13T10:00:49;96398.41;;;22.18;70.48
58771;BME280;44539;42.962;1.596;2022-09-13T10:03:17;96386.22;;;22.00;80.10
58771;BME280;44539;42.962;1.596;2022-09-13T10:05:44;96395.09;;;21.95;76.44
58771;BME280;44539;42.962;1.596;2022-09-13T10:08:25;96387.81;;;22.01;74.10
58771;BME280;44539;42.962;1.596;2022-09-13T10:10:55;96391.16;;;22.29;68.57
58771;BME280;44539;42.962;1.596;2022-09-13T10:13:22;96381.69;;;22.26;73.14
58771;BME280;44539;42.962;1.596;2022-09-13T10:16:03;96383.59;;;22.26;74.50
58771;BME280;44539;42.962;1.596;2022-09-13T10:18:30;96376.00;;;22.22;80.90
58771;BME280;44539;42.962;1.596;2022-09-13T10:23:47;96367.81;;;22.07;82.07
58771;BME280;44539;42.962;1.596;2022-09-13T10:26:22;96370.78;;;22.00;86.14
58771;BME280;44539;42.962;1.596;2022-09-13T10:28:58;96370.00;;;22.00;81.58
58771;BME280;44539;42.962;1.596;2022-09-13T10:31:30;96353.75;;;21.90;84.00
58771;BME280;44539;42.962;1.596;2022-09-13T10:34:02;96362.91;;;21.89;83.06
58771;BME280;44539;42.962;1.596;2022-09-13T10:36:32;96370.75;;;21.90;83.71
58771;BME280;44539;42.962;1.596;2022-09-13T10:39:04;96368.34;;;21.94;81.60
58771;BME280;44539;42.962;1.596;2022-09-13T10:41:36;96364.28;;;21.96;85.84
58771;BME280;44539;42.962;1.596;2022-09-13T10:44:05;96362.66;;;21.95;83.75
58771;BME280;44539;42.962;1.596;2022-09-13T10:46:34;96371.06;;;22.04;83.94
58771;BME280;44539;42.962;1.596;2022-09-13T10:49:00;96379.19;;;22.09;88.26
58771;BME280;44539;42.962;1.596;2022-09-13T10:56:40;96383.03;;;22.54;75.16
58771;BME280;44539;42.962;1.596;2022-09-13T10:59:28;96373.59;;;22.52;78.27
58771;BME280;44539;42.962;1.596;2022-09-13T11:09:59;96380.59;;;22.27;80.88
58771;BME280;44539;42.962;1.596;2022-09-13T11:15:09;96377.91;;;22.42;77.52
58771;BME280;44539;42.962;1.596;2022-09-13T11:17:55;96388.44;;;22.44;78.12
58771;BME280;44539;42.962;1.596;2022-09-13T11:26:51;96388.47;;;22.65;80.19
58771;BME280;44539;42.962;1.596;2022-09-13T11:31:52;96384.94;;;22.33;85.68
58771;BME280;44539;42.962;1.596;2022-09-13T11:54:49;96378.63;;;21.97;90.09
58771;BME280;44539;42.962;1.596;2022-09-13T11:57:41;96380.25;;;22.03;89.66
58771;BME280;44539;42.962;1.596;2022-09-13T12:03:22;96394.56;;;22.03;90.05
58771;BME280;44539;42.962;1.596;2022-09-13T12:05:44;96398.63;;;22.01;93.15
58771;BME280;44539;42.962;1.596;2022-09-13T12:08:29;96389.97;;;21.94;92.97
58771;BME280;44539;42.962;1.596;2022-09-13T12:11:07;96395.09;;;21.90;96.51
58771;BME280;44539;42.962;1.596;2022-09-13T12:13:41;96399.94;;;21.88;95.39
58771;BME280;44539;42.962;1.596;2022-09-13T12:16:14;96394.53;;;21.88;93.43
58771;BME280;44539;42.962;1.596;2022-09-13T12:18:45;96407.25;;;21.93;94.08
58771;BME280;44539;42.962;1.596;2022-09-13T12:21:15;96417.53;;;21.91;94.55
58771;BME280;44539;42.962;1.596;2022-09-13T12:26:55;96408.88;;;21.84;93.88
58771;BME280;44539;42.962;1.596;2022-09-13T12:29:53;96426.25;;;22.18;86.61
58771;BME280;44539;42.962;1.596;2022-09-13T12:32:20;96417.63;;;22.21;83.11
58771;BME280;44539;42.962;1.596;2022-09-13T12:35:00;96419.25;;;22.22;86.94
58771;BME280;44539;42.962;1.596;2022-09-13T12:43:46;96390.56;;;22.11;86.29
58771;BME280;44539;42.962;1.596;2022-09-13T13:00:02;96373.84;;;22.45;87.34
58771;BME280;44539;42.962;1.596;2022-09-13T13:02:38;96354.63;;;22.62;78.29
58771;BME280;44539;42.962;1.596;2022-09-13T13:05:37;96360.84;;;22.57;80.81
58771;BME280;44539;42.962;1.596;2022-09-13T13:08:26;96349.72;;;22.84;64.42
58771;BME280;44539;42.962;1.596;2022-09-13T13:13:35;96367.59;;;22.91;68.15
58771;BME280;44539;42.962;1.596;2022-09-13T13:16:05;96375.88;;;23.46;56.07
58771;BME280;44539;42.962;1.596;2022-09-13T13:18:52;96377.28;;;23.33;66.40
58771;BME280;44539;42.962;1.596;2022-09-13T13:21:28;96365.94;;;23.91;50.51
58771;BME280;44539;42.962;1.596;2022-09-13T13:26:54;96368.81;;;25.85;44.11
58771;BME280;44539;42.962;1.596;2022-09-13T13:29:31;96363.41;;;25.37;46.11
58771;BME280;44539;42.962;1.596;2022-09-13T13:37:38;96369.16;;;24.77;44.68
58771;BME280;44539;42.962;1.596;2022-09-13T13:39:46;96373.44;;;24.54;52.74
58771;BME280;44539;42.962;1.596;2022-09-13T13:42:28;96377.31;;;24.37;52.73
58771;BME280;44539;42.962;1.596;2022-09-13T13:50:12;96377.59;;;23.91;57.09
58771;BME280;44539;42.962;1.596;2022-09-13T13:52:58;96353.56;;;24.58;44.93
58771;BME280;44539;42.962;1.596;2022-09-13T13:55:44;96360.53;;;24.70;49.77
58771;BME280;44539;42.962;1.596;2022-09-13T13:58:29;96348.94;;;24.59;52.92
58771;BME280;44539;42.962;1.596;2022-09-13T14:00:57;96335.47;;;24.43;54.36
58771;BME280;44539;42.962;1.596;2022-09-13T14:03:33;96328.06;;;24.20;55.60
58771;BME280;44539;42.962;1.596;2022-09-13T14:06:11;96330.72;;;24.25;55.85
58771;BME280;44539;42.962;1.596;2022-09-13T14:14:26;96327.84;;;24.11;56.39
58771;BME280;44539;42.962;1.596;2022-09-13T14:17:05;96325.69;;;24.08;58.09
58771;BME280;44539;42.962;1.596;2022-09-13T14:19:40;96312.84;;;24.24;57.04
58771;BME280;44539;42.962;1.596;2022-09-13T14:22:14;96302.19;;;24.33;58.95
58771;BME280;44539;42.962;1.596;2022-09-13T14:27:45;96283.63;;;24.11;62.66
58771;BME280;44539;42.962;1.596;2022-09-13T14:30:21;96259.81;;;24.02;64.34
58771;BME280;44539;42.962;1.596;2022-09-13T14:32:57;96272.03;;;24.05;63.28
58771;BME280;44539;42.962;1.596;2022-09-13T14:35:25;96270.59;;;24.13;61.40
58771;BME280;44539;42.962;1.596;2022-09-13T14:37:51;96281.22;;;24.09;64.37
58771;BME280;44539;42.962;1.596;2022-09-13T14:40:20;96265.03;;;24.86;63.13
58771;BME280;44539;42.962;1.596;2022-09-13T14:42:48;96269.59;;;25.15;55.27
58771;BME280;44539;42.962;1.596;2022-09-13T14:45:15;96252.97;;;25.22;55.08
58771;BME280;44539;42.962;1.596;2022-09-13T14:48:06;96262.03;;;25.36;56.97
58771;BME280;44539;42.962;1.596;2022-09-13T14:50:35;96242.72;;;25.57;58.27
58771;BME280;44539;42.962;1.596;2022-09-13T14:53:04;96247.88;;;25.39;55.10
58771;BME280;44539;42.962;1.596;2022-09-13T14:55:41;96245.56;;;25.27;55.00
58771;BME280;44539;42.962;1.596;2022-09-13T14:58:16;96249.00;;;25.09;56.51
58771;BME280;44539;42.962;1.596;2022-09-13T15:01:14;96244.16;;;25.06;54.62
58771;BME280;44539;42.962;1.596;2022-09-13T15:03:43;96251.13;;;24.93;57.30
58771;BME280;44539;42.962;1.596;2022-09-13T15:06:40;96251.19;;;24.88;58.31
58771;BME280;44539;42.962;1.596;2022-09-13T15:11:57;96256.75;;;24.73;55.60
58771;BME280;44539;42.962;1.596;2022-09-13T15:17:08;96275.38;;;24.60;57.60
58771;BME280;44539;42.962;1.596;2022-09-13T15:24:42;96279.41;;;24.29;59.68
58771;BME280;44539;42.962;1.596;2022-09-13T15:27:20;96276.25;;;24.16;61.08
58771;BME280;44539;42.962;1.596;2022-09-13T15:29:50;96282.03;;;24.04;61.07
58771;BME280;44539;42.962;1.596;2022-09-13T15:32:22;96291.84;;;24.00;62.44
58771;BME280;44539;42.962;1.596;2022-09-13T15:34:48;96280.69;;;24.02;61.00
58771;BME280;44539;42.962;1.596;2022-09-13T15:37:14;96282.41;;;23.93;59.07
58771;BME280;44539;42.962;1.596;2022-09-13T15:40:13;96289.00;;;23.76;63.75
58771;BME280;44539;42.962;1.596;2022-09-13T15:42:39;96290.13;;;23.65;65.51
58771;BME280;44539;42.962;1.596;2022-09-13T15:45:05;96285.28;;;23.62;64.49
58771;BME280;44539;42.962;1.596;2022-09-13T15:47:31;96291.25;;;23.59;67.11
58771;BME280;44539;42.962;1.596;2022-09-13T15:49:56;96298.38;;;23.50;68.07
58771;BME280;44539;42.962;1.596;2022-09-13T15:52:23;96294.88;;;23.39;67.51
58771;BME280;44539;42.962;1.596;2022-09-13T15:54:49;96278.69;;;23.23;71.35
58771;BME280;44539;42.962;1.596;2022-09-13T15:59:45;96268.69;;;23.24;68.73
58771;BME280;44539;42.962;1.596;2022-09-13T16:02:20;96269.75;;;23.28;70.94
58771;BME280;44539;42.962;1.596;2022-09-13T16:04:46;96276.00;;;23.18;72.10
58771;BME280;44539;42.962;1.596;2022-09-13T16:07:12;96279.78;;;23.22;70.19
58771;BME280;44539;42.962;1.596;2022-09-13T16:09:38;96283.59;;;23.16;68.02
58771;BME280;44539;42.962;1.596;2022-09-13T16:12:04;96278.44;;;23.15;66.96
58771;BME280;44539;42.962;1.596;2022-09-13T16:14:29;96263.34;;;23.09;65.90
58771;BME280;44539;42.962;1.596;2022-09-13T16:16:55;96258.97;;;23.08;66.06
58771;BME280;44539;42.962;1.596;2022-09-13T16:19:22;96234.69;;;23.47;51.41
58771;BME280;44539;42.962;1.596;2022-09-13T16:21:49;96211.41;;;23.86;50.21
